Time;durP1;ratioP1;P1;durP2;ratioP2;P2;SDS_P1;SDS_P2;PMS_P1;PMS_P2;Temp;Humidity;BMP_temperature;BMP_pressure;BME280_temperature;BME280_humidity;BME280_pressure;Samples;Min_cycle;Max_cycle;Signal;HPM_P1;HPM_P2
2021/12/26 00:00:18;;;;;;;22.73;11.82;;;;;;;;;;5053620;28;20047;-56
2021/12/26 00:02:44;;;;;;;17.60;10.88;;;;;;;;;;5055738;28;20033;-53
2021/12/26 00:05:10;;;;;;;20.50;11.35;;;;;;;;;;5051750;28;20032;-55
2021/12/26 00:07:36;;;;;;;23.05;14.02;;;;;;;;;;5057370;28;20028;-53
2021/12/26 00:10:04;;;;;;;20.58;11.85;;;;;;;;;;5054344;28;20356;-57
2021/12/26 00:12:30;;;;;;;24.90;12.57;;;;;;;;;;5054688;28;20043;-52
2021/12/26 00:14:56;;;;;;;22.40;13.00;;;;;;;;;;5056337;28;20033;-55
2021/12/26 00:17:22;;;;;;;21.33;12.30;;;;;;;;;;5052289;28;20466;-59
2021/12/26 00:19:48;;;;;;;27.08;13.90;;;;;;;;;;5060244;28;20056;-55
2021/12/26 00:22:14;;;;;;;25.27;13.60;;;;;;;;;;5052453;28;20137;-55
2021/12/26 00:24:39;;;;;;;21.10;12.63;;;;;;;;;;5055546;28;20387;-57
2021/12/26 00:27:05;;;;;;;25.42;13.50;;;;;;;;;;5052964;28;20090;-61
2021/12/26 00:29:31;;;;;;;23.38;12.65;;;;;;;;;;5052421;28;20179;-54
2021/12/26 00:31:56;;;;;;;19.67;12.38;;;;;;;;;;5054132;28;20057;-56
2021/12/26 00:34:22;;;;;;;24.45;13.10;;;;;;;;;;5052355;28;20962;-53
2021/12/26 00:36:48;;;;;;;22.13;13.27;;;;;;;;;;5055636;28;20044;-59
2021/12/26 00:39:15;;;;;;;22.20;13.00;;;;;;;;;;5053618;28;20037;-55
2021/12/26 00:41:41;;;;;;;21.00;13.30;;;;;;;;;;5051928;28;20123;-55
2021/12/26 00:44:08;;;;;;;22.63;13.27;;;;;;;;;;5053084;28;20028;-57
2021/12/26 00:46:34;;;;;;;21.02;12.65;;;;;;;;;;5051058;28;20118;-58
2021/12/26 00:49:00;;;;;;;23.63;12.70;;;;;;;;;;5051624;28;20648;-59
2021/12/26 00:51:27;;;;;;;20.65;12.38;;;;;;;;;;5052872;28;20555;-56
2021/12/26 00:53:52;;;;;;;21.67;12.80;;;;;;;;;;5054963;28;20033;-59
2021/12/26 00:56:19;;;;;;;18.55;12.48;;;;;;;;;;5053394;28;20387;-54
2021/12/26 00:58:45;;;;;;;20.90;11.13;;;;;;;;;;5048627;28;20106;-57
2021/12/26 01:01:11;;;;;;;21.38;11.15;;;;;;;;;;5053509;28;20029;-59
2021/12/26 01:03:37;;;;;;;18.92;10.68;;;;;;;;;;5053930;28;20047;-57
2021/12/26 01:06:03;;;;;;;18.15;10.75;;;;;;;;;;5049965;28;20045;-55
2021/12/26 01:08:31;;;;;;;18.40;9.75;;;;;;;;;;5057164;28;20035;-57
2021/12/26 01:11:00;;;;;;;16.02;9.85;;;;;;;;;;5054023;28;20056;-57
2021/12/26 01:13:31;;;;;;;18.08;10.20;;;;;;;;;;5052502;28;20040;-56
2021/12/26 01:16:00;;;;;;;19.15;10.05;;;;;;;;;;5053529;28;20376;-58
2021/12/26 01:18:29;;;;;;;20.17;11.07;;;;;;;;;;5053469;28;20124;-50
2021/12/26 01:21:00;;;;;;;18.02;11.35;;;;;;;;;;5054162;28;20045;-50
2021/12/26 01:23:28;;;;;;;18.65;9.65;;;;;;;;;;5050222;28;20041;-49
2021/12/26 01:25:55;;;;;;;22.95;12.13;;;;;;;;;;5053526;28;20496;-52
2021/12/26 01:28:23;;;;;;;18.30;10.48;;;;;;;;;;5050098;28;20033;-52
2021/12/26 01:30:50;;;;;;;15.95;10.48;;;;;;;;;;5051350;28;20040;-58
2021/12/26 01:33:18;;;;;;;17.40;10.05;;;;;;;;;;5053027;28;20036;-57
2021/12/26 01:35:44;;;;;;;18.60;9.45;;;;;;;;;;5050368;28;20753;-54
2021/12/26 01:38:13;;;;;;;20.35;10.55;;;;;;;;;;5053268;28;20136;-58
2021/12/26 01:40:47;;;;;;;15.73;10.30;;;;;;;;;;5052068;28;20033;-57
2021/12/26 01:43:14;;;;;;;17.50;10.25;;;;;;;;;;5052110;28;20033;-57
2021/12/26 01:45:39;;;;;;;17.23;10.57;;;;;;;;;;5053073;28;20032;-55
2021/12/26 01:48:06;;;;;;;15.52;10.45;;;;;;;;;;5049223;28;20554;-56
2021/12/26 01:50:33;;;;;;;18.02;10.93;;;;;;;;;;5054977;28;20144;-54
2021/12/26 01:52:59;;;;;;;17.48;10.02;;;;;;;;;;5048763;28;20069;-55
2021/12/26 01:55:37;;;;;;;17.67;9.90;;;;;;;;;;5052406;28;20056;-53
2021/12/26 01:58:04;;;;;;;17.88;9.85;;;;;;;;;;5052936;28;20037;-54
2021/12/26 02:00:30;;;;;;;16.52;9.50;;;;;;;;;;5051279;28;20035;-57
2021/12/26 02:02:56;;;;;;;16.58;10.13;;;;;;;;;;5055685;28;20060;-54
2021/12/26 02:05:21;;;;;;;17.23;10.10;;;;;;;;;;5050396;28;20392;-56
2021/12/26 02:07:47;;;;;;;19.77;9.25;;;;;;;;;;5055895;28;20029;-56
2021/12/26 02:10:13;;;;;;;16.20;9.65;;;;;;;;;;5051152;28;20098;-53
2021/12/26 02:12:40;;;;;;;19.75;10.10;;;;;;;;;;5049214;28;20059;-59
2021/12/26 02:15:06;;;;;;;13.93;8.85;;;;;;;;;;5054258;28;20072;-56
2021/12/26 02:17:32;;;;;;;17.45;8.82;;;;;;;;;;5050681;28;20102;-53
2021/12/26 02:20:46;;;;;;;14.32;7.85;;;;;;;;;;5052006;28;20032;-56
2021/12/26 02:23:17;;;;;;;13.77;8.68;;;;;;;;;;4979699;28;20173;-57
2021/12/26 02:28:08;;;;;;;15.13;9.00;;;;;;;;;;5052169;28;20040;-55
2021/12/26 02:30:34;;;;;;;14.85;8.82;;;;;;;;;;5050847;28;20045;-55
2021/12/26 02:33:03;;;;;;;18.73;8.85;;;;;;;;;;5053669;28;20132;-54
2021/12/26 02:35:30;;;;;;;12.68;7.85;;;;;;;;;;5050614;28;20120;-56
2021/12/26 02:37:55;;;;;;;13.93;7.80;;;;;;;;;;5051194;28;20392;-54
2021/12/26 02:40:21;;;;;;;14.43;8.20;;;;;;;;;;5053456;28;20048;-54
2021/12/26 02:42:47;;;;;;;13.05;7.85;;;;;;;;;;5049399;28;20495;-58
2021/12/26 02:45:13;;;;;;;13.55;7.47;;;;;;;;;;5053311;28;20029;-53
2021/12/26 02:47:42;;;;;;;13.77;8.15;;;;;;;;;;5050647;28;20103;-55
2021/12/26 02:50:11;;;;;;;17.00;8.45;;;;;;;;;;5050924;28;20032;-52
2021/12/26 02:52:37;;;;;;;13.02;7.47;;;;;;;;;;5052951;28;20041;-59
2021/12/26 02:55:03;;;;;;;11.73;7.47;;;;;;;;;;5050454;28;20021;-51
2021/12/26 02:57:29;;;;;;;12.48;7.03;;;;;;;;;;5058780;28;20391;-56
2021/12/26 02:59:55;;;;;;;12.27;7.00;;;;;;;;;;5052896;28;20060;-54
2021/12/26 03:02:21;;;;;;;13.80;7.50;;;;;;;;;;5056506;28;20839;-55
2021/12/26 03:04:46;;;;;;;9.95;6.32;;;;;;;;;;5055896;28;20135;-59
2021/12/26 03:07:12;;;;;;;14.07;7.43;;;;;;;;;;5052237;28;20123;-55
2021/12/26 03:09:48;;;;;;;11.57;6.82;;;;;;;;;;5057613;28;20032;-52
2021/12/26 03:12:14;;;;;;;12.80;7.07;;;;;;;;;;5051846;28;20041;-52
2021/12/26 03:14:40;;;;;;;14.25;6.82;;;;;;;;;;5056847;28;20040;-52
2021/12/26 03:17:07;;;;;;;15.15;7.97;;;;;;;;;;5053582;28;20029;-52
2021/12/26 03:19:34;;;;;;;13.60;7.75;;;;;;;;;;5053894;28;20025;-50
2021/12/26 03:22:00;;;;;;;11.25;7.00;;;;;;;;;;5056318;28;20102;-52
2021/12/26 03:24:26;;;;;;;12.93;6.80;;;;;;;;;;5052901;28;20033;-53
2021/12/26 03:26:59;;;;;;;12.20;6.22;;;;;;;;;;5055310;28;20036;-54
2021/12/26 03:29:24;;;;;;;12.80;6.63;;;;;;;;;;5054448;28;20037;-58
2021/12/26 03:31:50;;;;;;;13.18;7.00;;;;;;;;;;5051678;28;20554;-52
2021/12/26 03:34:16;;;;;;;9.48;6.20;;;;;;;;;;5055319;28;20076;-53
2021/12/26 03:36:42;;;;;;;13.77;7.30;;;;;;;;;;5052627;28;20119;-55
2021/12/26 03:39:08;;;;;;;15.18;6.80;;;;;;;;;;5055638;28;20033;-52
2021/12/26 03:41:34;;;;;;;10.45;6.85;;;;;;;;;;5054603;28;20374;-56
2021/12/26 03:44:00;;;;;;;11.82;6.85;;;;;;;;;;5056152;28;20083;-53
2021/12/26 03:46:26;;;;;;;11.98;7.22;;;;;;;;;;5056985;28;20045;-54
2021/12/26 03:48:52;;;;;;;19.65;7.60;;;;;;;;;;5051087;28;20493;-55
2021/12/26 03:51:19;;;;;;;12.57;7.13;;;;;;;;;;5055260;28;20566;-58
2021/12/26 03:53:45;;;;;;;16.80;7.05;;;;;;;;;;5056149;28;20136;-54
2021/12/26 03:56:10;;;;;;;11.75;7.30;;;;;;;;;;5051860;28;20037;-57
2021/12/26 03:58:38;;;;;;;13.15;7.75;;;;;;;;;;5058324;28;20033;-50
2021/12/26 04:01:03;;;;;;;16.15;7.40;;;;;;;;;;5050803;28;20053;-51
2021/12/26 04:03:29;;;;;;;13.30;7.43;;;;;;;;;;5055830;28;20123;-53
2021/12/26 04:05:55;;;;;;;16.48;8.13;;;;;;;;;;5051363;28;20497;-57
2021/12/26 04:08:21;;;;;;;13.43;7.38;;;;;;;;;;5051915;28;20044;-55
2021/12/26 04:10:46;;;;;;;12.85;7.15;;;;;;;;;;5056509;28;20123;-51
2021/12/26 04:13:12;;;;;;;12.77;7.53;;;;;;;;;;5050537;28;20043;-54
2021/12/26 04:15:39;;;;;;;16.17;8.63;;;;;;;;;;5057097;28;20128;-53
2021/12/26 04:18:05;;;;;;;11.18;7.43;;;;;;;;;;5051184;28;20037;-50
2021/12/26 04:20:30;;;;;;;13.10;7.90;;;;;;;;;;5053226;28;20099;-56
2021/12/26 04:22:58;;;;;;;11.15;7.40;;;;;;;;;;5056381;28;20088;-58
2021/12/26 04:25:24;;;;;;;10.55;7.05;;;;;;;;;;5051519;28;20037;-50
2021/12/26 04:27:50;;;;;;;15.48;7.78;;;;;;;;;;5057322;28;20033;-56
2021/12/26 04:30:17;;;;;;;14.85;8.55;;;;;;;;;;5052279;28;20064;-51
2021/12/26 04:32:42;;;;;;;11.77;7.38;;;;;;;;;;5054334;28;20131;-56
2021/12/26 04:35:08;;;;;;;11.88;7.35;;;;;;;;;;5054612;28;20751;-55
2021/12/26 04:37:35;;;;;;;11.02;7.68;;;;;;;;;;5051785;28;20036;-51
2021/12/26 04:40:07;;;;;;;12.50;7.63;;;;;;;;;;5054043;28;20492;-53
2021/12/26 04:42:33;;;;;;;10.90;7.13;;;;;;;;;;5052437;28;20152;-50
2021/12/26 04:44:59;;;;;;;13.98;7.47;;;;;;;;;;5051771;28;20051;-55
2021/12/26 04:47:24;;;;;;;11.90;6.95;;;;;;;;;;5053193;28;20614;-54
2021/12/26 04:49:50;;;;;;;12.52;7.40;;;;;;;;;;5050325;28;20033;-55
2021/12/26 04:52:16;;;;;;;13.27;7.07;;;;;;;;;;5053831;28;20113;-53
2021/12/26 04:54:42;;;;;;;12.45;7.18;;;;;;;;;;5052293;28;20613;-52
2021/12/26 04:57:07;;;;;;;12.38;7.10;;;;;;;;;;5051212;28;20048;-53
2021/12/26 04:59:33;;;;;;;15.95;6.78;;;;;;;;;;5055195;28;20045;-51
2021/12/26 05:01:59;;;;;;;12.18;6.47;;;;;;;;;;5049760;28;20090;-56
2021/12/26 05:04:25;;;;;;;10.40;6.70;;;;;;;;;;5053271;28;20043;-57
2021/12/26 05:06:50;;;;;;;14.20;6.75;;;;;;;;;;5050873;28;20068;-52
2021/12/26 05:09:16;;;;;;;12.38;7.13;;;;;;;;;;5051032;28;20130;-59
2021/12/26 05:11:42;;;;;;;11.82;6.43;;;;;;;;;;5052332;28;20063;-56
2021/12/26 05:14:07;;;;;;;9.93;6.43;;;;;;;;;;5049353;28;20057;-52
2021/12/26 05:16:33;;;;;;;13.63;6.60;;;;;;;;;;5054983;28;20496;-53
2021/12/26 05:18:59;;;;;;;11.90;6.82;;;;;;;;;;5049416;28;20094;-56
2021/12/26 05:21:25;;;;;;;9.68;6.05;;;;;;;;;;5052931;28;20058;-53
2021/12/26 05:23:50;;;;;;;11.07;6.75;;;;;;;;;;5051361;28;20461;-55
2021/12/26 05:26:16;;;;;;;13.65;7.07;;;;;;;;;;5049580;28;20044;-57
2021/12/26 05:28:42;;;;;;;11.85;6.45;;;;;;;;;;5058866;28;20064;-55
2021/12/26 05:31:07;;;;;;;10.88;6.55;;;;;;;;;;5049394;28;20033;-60
2021/12/26 05:33:34;;;;;;;11.45;6.18;;;;;;;;;;5052404;28;20136;-49
2021/12/26 05:36:00;;;;;;;10.02;6.00;;;;;;;;;;5051749;28;20524;-55
2021/12/26 05:38:27;;;;;;;14.43;7.10;;;;;;;;;;5050117;28;20053;-57
2021/12/26 05:40:54;;;;;;;9.13;6.45;;;;;;;;;;5054025;28;20496;-56
2021/12/26 05:43:19;;;;;;;9.20;6.18;;;;;;;;;;5050065;28;20901;-59
2021/12/26 05:45:45;;;;;;;13.00;6.68;;;;;;;;;;5052880;28;20072;-49
2021/12/26 05:48:11;;;;;;;10.32;6.15;;;;;;;;;;5050976;28;20076;-53
2021/12/26 05:50:37;;;;;;;16.10;6.50;;;;;;;;;;5050549;28;20040;-53
2021/12/26 05:53:02;;;;;;;11.82;6.32;;;;;;;;;;5055648;28;20061;-53
2021/12/26 05:55:28;;;;;;;9.27;5.90;;;;;;;;;;5051011;28;20033;-49
2021/12/26 05:57:54;;;;;;;14.05;5.82;;;;;;;;;;5051399;28;20528;-59
2021/12/26 06:00:21;;;;;;;10.23;6.30;;;;;;;;;;5053141;28;20072;-51
2021/12/26 06:02:50;;;;;;;13.18;6.20;;;;;;;;;;5049392;28;20110;-54
2021/12/26 06:05:16;;;;;;;10.68;6.07;;;;;;;;;;5056054;28;20131;-54
2021/12/26 06:07:41;;;;;;;14.52;6.20;;;;;;;;;;5050836;28;20094;-49
2021/12/26 06:10:08;;;;;;;13.25;6.45;;;;;;;;;;5052283;28;20114;-52
2021/12/26 06:12:34;;;;;;;10.95;7.32;;;;;;;;;;5053243;28;20404;-50
2021/12/26 06:14:59;;;;;;;12.80;6.55;;;;;;;;;;5049414;28;20072;-50
2021/12/26 06:17:25;;;;;;;13.25;6.50;;;;;;;;;;5055350;28;20047;-58
2021/12/26 06:19:51;;;;;;;12.38;5.93;;;;;;;;;;5049471;28;20037;-59
2021/12/26 06:22:16;;;;;;;13.32;6.82;;;;;;;;;;5052305;28;20486;-57
2021/12/26 06:24:42;;;;;;;13.88;6.85;;;;;;;;;;5053118;28;20125;-58
2021/12/26 06:27:09;;;;;;;9.18;6.32;;;;;;;;;;5048274;28;20037;-56
2021/12/26 06:29:35;;;;;;;18.13;6.78;;;;;;;;;;5057270;28;20037;-53
2021/12/26 06:32:01;;;;;;;11.43;5.60;;;;;;;;;;5052596;28;20419;-55
2021/12/26 06:34:26;;;;;;;9.27;6.20;;;;;;;;;;5056037;28;20035;-55
2021/12/26 06:36:52;;;;;;;10.82;5.78;;;;;;;;;;5055984;28;20047;-58
2021/12/26 06:39:18;;;;;;;13.50;6.70;;;;;;;;;;5052511;28;20114;-51
2021/12/26 06:41:44;;;;;;;11.27;6.05;;;;;;;;;;5058109;28;20474;-54
2021/12/26 06:44:10;;;;;;;13.48;6.47;;;;;;;;;;5052849;28;20041;-55
2021/12/26 06:46:36;;;;;;;14.65;5.13;;;;;;;;;;5056806;28;20665;-55
2021/12/26 06:49:04;;;;;;;10.73;5.80;;;;;;;;;;5055231;28;20040;-52
2021/12/26 06:51:30;;;;;;;10.43;5.68;;;;;;;;;;5054227;28;20035;-53
2021/12/26 06:53:56;;;;;;;13.50;5.80;;;;;;;;;;5056992;28;20098;-59
2021/12/26 06:56:22;;;;;;;14.23;6.60;;;;;;;;;;5053577;28;20036;-51
2021/12/26 06:58:47;;;;;;;12.18;5.88;;;;;;;;;;5059361;28;20166;-54
2021/12/26 07:01:13;;;;;;;7.80;4.95;;;;;;;;;;5055138;28;20037;-52
2021/12/26 07:03:39;;;;;;;9.43;4.78;;;;;;;;;;5054112;28;20036;-54
2021/12/26 07:06:04;;;;;;;10.13;5.57;;;;;;;;;;5056041;28;20055;-52
2021/12/26 07:08:30;;;;;;;11.73;5.78;;;;;;;;;;5052483;28;20145;-57
2021/12/26 07:10:56;;;;;;;9.75;5.63;;;;;;;;;;5054197;28;20484;-56
2021/12/26 07:13:22;;;;;;;13.88;5.82;;;;;;;;;;5055203;28;20075;-52
2021/12/26 07:15:48;;;;;;;14.23;6.20;;;;;;;;;;5052096;28;20124;-43
2021/12/26 07:18:13;;;;;;;9.88;5.65;;;;;;;;;;5056882;28;20403;-50
2021/12/26 07:20:40;;;;;;;14.18;7.03;;;;;;;;;;5053022;28;20044;-47
2021/12/26 07:23:06;;;;;;;12.38;6.22;;;;;;;;;;5055609;28;20064;-48
2021/12/26 07:25:32;;;;;;;12.30;5.95;;;;;;;;;;5055771;28;20033;-50
2021/12/26 07:27:57;;;;;;;11.95;6.70;;;;;;;;;;5053915;28;20047;-45
2021/12/26 07:30:23;;;;;;;12.73;6.72;;;;;;;;;;5056899;28;20037;-45
2021/12/26 07:32:49;;;;;;;11.20;6.30;;;;;;;;;;5062146;28;20112;-48
2021/12/26 07:35:14;;;;;;;11.27;5.72;;;;;;;;;;5054319;28;20066;-48
2021/12/26 07:37:40;;;;;;;11.13;5.65;;;;;;;;;;5053605;28;20033;-48
2021/12/26 07:40:07;;;;;;;9.23;5.35;;;;;;;;;;5051194;28;20377;-44
2021/12/26 07:42:32;;;;;;;10.02;6.10;;;;;;;;;;5058275;28;20127;-48
2021/12/26 07:44:58;;;;;;;10.63;5.97;;;;;;;;;;5051451;28;20057;-46
2021/12/26 07:47:24;;;;;;;11.98;6.05;;;;;;;;;;5054027;28;20060;-49
2021/12/26 07:49:50;;;;;;;11.55;6.07;;;;;;;;;;5054395;28;20036;-49
2021/12/26 07:52:19;;;;;;;13.50;6.85;;;;;;;;;;5052129;28;20163;-49
2021/12/26 07:54:45;;;;;;;14.30;6.93;;;;;;;;;;5053663;28;20051;-47
2021/12/26 07:57:11;;;;;;;9.30;6.13;;;;;;;;;;5051450;28;20040;-45
2021/12/26 07:59:37;;;;;;;12.02;6.13;;;;;;;;;;5055933;28;20044;-46
2021/12/26 08:02:04;;;;;;;11.13;6.35;;;;;;;;;;5052761;28;20039;-45
2021/12/26 08:04:29;;;;;;;13.55;7.57;;;;;;;;;;5052824;28;20033;-45
2021/12/26 08:06:58;;;;;;;12.88;6.40;;;;;;;;;;5054565;28;20451;-46
2021/12/26 08:09:23;;;;;;;10.85;5.90;;;;;;;;;;5056781;28;20033;-46
2021/12/26 08:11:49;;;;;;;15.68;6.15;;;;;;;;;;5054778;28;20582;-47
2021/12/26 08:14:15;;;;;;;15.48;6.85;;;;;;;;;;5055369;28;20105;-51
2021/12/26 08:16:41;;;;;;;13.25;7.30;;;;;;;;;;5059549;28;20044;-47
2021/12/26 08:19:07;;;;;;;16.95;8.15;;;;;;;;;;5052697;28;20044;-43
2021/12/26 08:21:33;;;;;;;16.83;8.15;;;;;;;;;;5057419;28;20076;-44
2021/12/26 08:23:59;;;;;;;22.25;10.13;;;;;;;;;;5054884;28;20033;-55
2021/12/26 08:26:24;;;;;;;13.32;7.65;;;;;;;;;;5053802;28;20033;-43
2021/12/26 08:28:50;;;;;;;16.02;7.95;;;;;;;;;;5059014;28;20045;-48
2021/12/26 08:31:17;;;;;;;17.95;9.65;;;;;;;;;;5053096;28;20045;-49
2021/12/26 08:33:43;;;;;;;10.63;6.55;;;;;;;;;;5056380;28;20037;-44
2021/12/26 08:36:09;;;;;;;23.30;10.93;;;;;;;;;;5056580;28;20125;-47
2021/12/26 08:38:34;;;;;;;22.10;10.43;;;;;;;;;;5056044;28;20148;-48
2021/12/26 08:41:00;;;;;;;19.83;10.00;;;;;;;;;;5056013;28;20562;-45
2021/12/26 08:43:26;;;;;;;22.70;9.75;;;;;;;;;;5048328;28;20155;-45
2021/12/26 08:45:52;;;;;;;22.58;10.75;;;;;;;;;;5048935;28;20055;-46
2021/12/26 08:48:18;;;;;;;21.20;10.68;;;;;;;;;;5053437;28;20139;-46
2021/12/26 08:50:45;;;;;;;19.95;10.65;;;;;;;;;;5052537;28;20032;-45
2021/12/26 08:53:11;;;;;;;23.02;10.98;;;;;;;;;;5047949;28;20490;-49
2021/12/26 08:55:37;;;;;;;16.50;8.85;;;;;;;;;;5056501;28;20090;-44
2021/12/26 08:58:06;;;;;;;19.35;9.82;;;;;;;;;;5047561;28;20077;-45
2021/12/26 09:00:32;;;;;;;15.50;9.23;;;;;;;;;;5054980;28;20064;-49
2021/12/26 09:02:58;;;;;;;19.40;10.65;;;;;;;;;;5054047;28;20047;-49
2021/12/26 09:05:24;;;;;;;18.42;9.05;;;;;;;;;;5050456;28;20037;-48
2021/12/26 09:07:49;;;;;;;16.83;7.85;;;;;;;;;;5054648;28;20466;-44
2021/12/26 09:10:15;;;;;;;18.17;8.68;;;;;;;;;;5049480;28;20029;-44
2021/12/26 09:12:41;;;;;;;13.02;8.45;;;;;;;;;;5055645;28;20111;-46
2021/12/26 09:15:08;;;;;;;21.38;10.02;;;;;;;;;;5050285;28;20083;-48
2021/12/26 09:17:34;;;;;;;12.70;8.82;;;;;;;;;;5052066;28;20044;-47
2021/12/26 09:20:00;;;;;;;17.70;9.57;;;;;;;;;;5051344;28;20052;-43
2021/12/26 09:22:26;;;;;;;13.30;8.73;;;;;;;;;;5049862;28;20132;-45
2021/12/26 09:24:52;;;;;;;14.85;8.65;;;;;;;;;;5054725;28;20305;-44
2021/12/26 09:27:18;;;;;;;16.27;8.95;;;;;;;;;;5049069;28;20800;-46
2021/12/26 09:29:43;;;;;;;13.57;8.43;;;;;;;;;;5052737;28;20039;-43
2021/12/26 09:32:09;;;;;;;16.05;9.35;;;;;;;;;;5054043;28;20456;-42
2021/12/26 09:34:35;;;;;;;18.27;9.88;;;;;;;;;;5049329;28;20036;-43
2021/12/26 09:37:03;;;;;;;17.75;10.02;;;;;;;;;;5052586;28;20048;-43
2021/12/26 09:39:29;;;;;;;17.10;10.18;;;;;;;;;;5052826;28;20037;-42
2021/12/26 09:41:55;;;;;;;18.50;11.75;;;;;;;;;;5050736;28;20500;-43
2021/12/26 09:44:21;;;;;;;21.17;11.63;;;;;;;;;;5050903;28;20044;-42
2021/12/26 09:46:47;;;;;;;23.48;11.23;;;;;;;;;;5047902;28;20129;-44
2021/12/26 09:49:13;;;;;;;17.08;10.75;;;;;;;;;;5053993;28;20528;-42
2021/12/26 09:51:39;;;;;;;16.98;10.93;;;;;;;;;;5050633;28;20675;-46
2021/12/26 09:54:06;;;;;;;19.50;10.35;;;;;;;;;;5054731;28;20041;-46
2021/12/26 09:56:32;;;;;;;19.13;9.85;;;;;;;;;;5060463;28;20055;-46
2021/12/26 09:59:04;;;;;;;17.63;10.30;;;;;;;;;;5052495;28;20120;-42
2021/12/26 10:01:39;;;;;;;19.45;10.82;;;;;;;;;;5053362;28;20567;-48
2021/12/26 10:04:25;;;;;;;19.52;10.05;;;;;;;;;;5050215;28;20044;-47
2021/12/26 10:06:58;;;;;;;19.83;11.43;;;;;;;;;;5062360;28;20029;-44
2021/12/26 10:09:24;;;;;;;19.10;10.52;;;;;;;;;;5054917;28;20052;-48
2021/12/26 10:11:54;;;;;;;20.70;12.05;;;;;;;;;;5053388;28;20043;-43
2021/12/26 10:14:22;;;;;;;16.13;10.00;;;;;;;;;;5057956;28;20090;-45
2021/12/26 10:17:00;;;;;;;18.40;10.27;;;;;;;;;;5051882;28;20086;-43
2021/12/26 10:19:26;;;;;;;17.40;9.15;;;;;;;;;;5056335;28;20044;-48
2021/12/26 10:21:54;;;;;;;14.98;9.63;;;;;;;;;;5052568;28;20041;-45
2021/12/26 10:24:39;;;;;;;18.05;9.52;;;;;;;;;;5053308;28;20040;-48
2021/12/26 10:27:09;;;;;;;18.98;9.73;;;;;;;;;;5055772;28;20033;-40
2021/12/26 10:29:39;;;;;;;18.63;9.85;;;;;;;;;;5053555;28;20654;-41
2021/12/26 10:32:18;;;;;;;16.30;9.15;;;;;;;;;;5057838;28;20025;-46
2021/12/26 10:34:49;;;;;;;18.85;8.40;;;;;;;;;;5053845;28;20041;-44
2021/12/26 10:37:34;;;;;;;16.25;9.63;;;;;;;;;;5056654;28;20033;-42
2021/12/26 10:40:22;;;;;;;18.50;9.02;;;;;;;;;;5058585;28;20033;-43
2021/12/26 10:42:53;;;;;;;14.57;8.40;;;;;;;;;;5055694;28;20098;-49
2021/12/26 10:45:27;;;;;;;13.18;7.88;;;;;;;;;;5056469;28;20221;-44
2021/12/26 10:47:56;;;;;;;16.92;8.70;;;;;;;;;;5063465;28;20404;-48
2021/12/26 10:50:25;;;;;;;14.02;8.32;;;;;;;;;;5057951;28;20036;-48
2021/12/26 10:52:55;;;;;;;13.45;8.13;;;;;;;;;;5053183;28;20873;-45
2021/12/26 10:55:28;;;;;;;15.35;9.10;;;;;;;;;;5059206;28;20381;-40
2021/12/26 10:57:54;;;;;;;14.23;7.78;;;;;;;;;;5062129;28;20703;-43
2021/12/26 11:00:29;;;;;;;12.43;7.63;;;;;;;;;;5052053;28;20049;-47
2021/12/26 11:03:00;;;;;;;12.65;7.35;;;;;;;;;;5056606;28;20048;-40
2021/12/26 11:05:32;;;;;;;13.98;7.15;;;;;;;;;;5053825;28;20059;-44
2021/12/26 11:08:00;;;;;;;11.77;6.85;;;;;;;;;;5058307;28;20037;-44
2021/12/26 11:10:28;;;;;;;12.45;7.28;;;;;;;;;;5056468;28;20052;-43
2021/12/26 11:12:59;;;;;;;12.45;7.13;;;;;;;;;;5051678;28;20472;-46
2021/12/26 11:15:33;;;;;;;12.95;7.20;;;;;;;;;;5054938;28;20568;-44
2021/12/26 11:18:02;;;;;;;10.35;6.88;;;;;;;;;;5051840;28;20085;-43
2021/12/26 11:20:33;;;;;;;11.73;6.60;;;;;;;;;;5058826;28;20035;-49
2021/12/26 11:23:00;;;;;;;10.50;6.55;;;;;;;;;;5056025;28;20048;-46
2021/12/26 11:25:27;;;;;;;13.07;7.78;;;;;;;;;;5055841;28;20040;-44
2021/12/26 11:27:52;;;;;;;11.90;7.00;;;;;;;;;;5054425;28;20466;-47
2021/12/26 11:30:20;;;;;;;10.95;7.13;;;;;;;;;;5050072;28;20051;-50
2021/12/26 11:32:45;;;;;;;11.25;6.97;;;;;;;;;;5057367;28;20040;-49
2021/12/26 11:35:12;;;;;;;10.43;7.18;;;;;;;;;;5050455;28;20416;-48
2021/12/26 11:37:39;;;;;;;12.45;8.60;;;;;;;;;;5056210;28;20325;-46
2021/12/26 11:40:09;;;;;;;13.07;7.55;;;;;;;;;;5052209;28;20040;-45
2021/12/26 11:42:45;;;;;;;12.18;7.93;;;;;;;;;;5051144;28;20041;-44
2021/12/26 11:45:31;;;;;;;12.93;8.73;;;;;;;;;;5056735;28;20064;-42
2021/12/26 11:48:38;;;;;;;11.20;7.07;;;;;;;;;;5051117;28;20033;-44
2021/12/26 11:51:08;;;;;;;10.13;7.47;;;;;;;;;;5055377;28;20033;-43
2021/12/26 11:54:03;;;;;;;12.07;7.75;;;;;;;;;;5050563;28;20419;-43
2021/12/26 11:56:35;;;;;;;12.75;8.18;;;;;;;;;;5061454;28;20036;-44
2021/12/26 11:59:19;;;;;;;12.35;8.20;;;;;;;;;;5054531;28;20037;-48
2021/12/26 12:01:48;;;;;;;12.25;8.10;;;;;;;;;;5057288;28;20064;-45
2021/12/26 12:04:17;;;;;;;12.27;7.72;;;;;;;;;;5054638;28;20069;-47
2021/12/26 12:06:43;;;;;;;12.20;7.45;;;;;;;;;;5053590;28;20411;-49
2021/12/26 12:09:37;;;;;;;12.85;8.32;;;;;;;;;;5057367;28;20040;-50
2021/12/26 12:12:07;;;;;;;11.43;7.18;;;;;;;;;;5050034;28;20759;-47
2021/12/26 12:14:56;;;;;;;11.30;7.78;;;;;;;;;;5056116;28;20048;-43
2021/12/26 12:17:26;;;;;;;12.35;7.22;;;;;;;;;;5049938;28;20112;-48
2021/12/26 12:20:14;;;;;;;13.68;7.63;;;;;;;;;;5057791;28;20033;-44
2021/12/26 12:23:07;;;;;;;12.20;7.00;;;;;;;;;;5053601;28;20079;-42
2021/12/26 12:25:41;;;;;;;11.27;7.10;;;;;;;;;;5052562;28;20518;-49
2021/12/26 12:28:22;;;;;;;14.15;7.68;;;;;;;;;;5053003;28;20044;-44
2021/12/26 12:30:51;;;;;;;11.43;7.25;;;;;;;;;;5048145;28;20041;-47
2021/12/26 12:33:29;;;;;;;13.50;7.10;;;;;;;;;;5057154;28;20040;-47
2021/12/26 12:35:57;;;;;;;14.73;6.68;;;;;;;;;;5050592;28;20029;-46
2021/12/26 12:38:46;;;;;;;11.75;6.90;;;;;;;;;;5054683;28;20036;-49
2021/12/26 12:41:32;;;;;;;11.57;6.60;;;;;;;;;;5051563;28;20067;-45
2021/12/26 12:44:01;;;;;;;10.07;5.97;;;;;;;;;;5052488;28;20495;-49
2021/12/26 12:46:27;;;;;;;11.52;6.10;;;;;;;;;;5054751;28;20051;-45
2021/12/26 12:48:59;;;;;;;10.30;5.78;;;;;;;;;;5050354;28;20060;-43
2021/12/26 12:51:27;;;;;;;13.48;7.85;;;;;;;;;;5056666;28;20040;-45
2021/12/26 12:54:18;;;;;;;11.82;5.88;;;;;;;;;;5050966;28;20408;-48
2021/12/26 12:56:45;;;;;;;10.07;6.38;;;;;;;;;;5055640;28;20044;-46
2021/12/26 12:59:14;;;;;;;19.13;11.98;;;;;;;;;;5049791;28;20041;-42
2021/12/26 13:01:42;;;;;;;10.80;5.72;;;;;;;;;;5052613;28;20098;-46
2021/12/26 13:04:08;;;;;;;10.10;5.55;;;;;;;;;;5054959;28;20055;-46
2021/12/26 13:06:34;;;;;;;8.60;5.38;;;;;;;;;;5050445;28;20037;-46
2021/12/26 13:09:00;;;;;;;9.80;5.13;;;;;;;;;;5053363;28;20059;-49
2021/12/26 13:11:29;;;;;;;11.60;5.40;;;;;;;;;;5050869;28;20717;-45
2021/12/26 13:13:57;;;;;;;8.55;4.47;;;;;;;;;;5056008;28;20508;-48
2021/12/26 13:16:30;;;;;;;8.30;4.95;;;;;;;;;;5054051;28;20170;-44
2021/12/26 13:19:04;;;;;;;9.77;5.28;;;;;;;;;;5049728;28;20493;-46
2021/12/26 13:21:30;;;;;;;9.48;6.05;;;;;;;;;;5057345;28;20047;-43
2021/12/26 13:23:56;;;;;;;10.82;5.88;;;;;;;;;;5049765;28;20035;-49
2021/12/26 13:26:22;;;;;;;10.77;5.93;;;;;;;;;;5052606;28;20037;-47
2021/12/26 13:28:48;;;;;;;13.02;6.53;;;;;;;;;;5053514;28;20037;-44
2021/12/26 13:31:20;;;;;;;9.85;5.85;;;;;;;;;;5049608;28;20383;-45
2021/12/26 13:33:55;;;;;;;11.18;6.40;;;;;;;;;;5055318;28;20040;-41
2021/12/26 13:36:27;;;;;;;11.02;6.53;;;;;;;;;;5048226;28;20112;-47
2021/12/26 13:38:55;;;;;;;12.57;5.82;;;;;;;;;;5058948;28;20580;-45
2021/12/26 13:41:23;;;;;;;10.75;6.05;;;;;;;;;;5051606;28;20051;-43
2021/12/26 13:43:49;;;;;;;10.88;6.20;;;;;;;;;;5051152;28;20032;-42
2021/12/26 13:46:18;;;;;;;11.77;5.35;;;;;;;;;;5053051;28;20051;-44
2021/12/26 13:48:49;;;;;;;9.52;5.78;;;;;;;;;;5047923;28;20174;-48
2021/12/26 13:51:30;;;;;;;10.98;7.22;;;;;;;;;;5055173;28;20041;-49
2021/12/26 13:54:05;;;;;;;10.63;6.30;;;;;;;;;;5050468;28;20679;-44
2021/12/26 13:56:32;;;;;;;12.35;6.13;;;;;;;;;;5053817;28;20070;-45
2021/12/26 13:58:57;;;;;;;11.95;5.97;;;;;;;;;;5059586;28;20039;-46
2021/12/26 14:01:24;;;;;;;10.55;6.10;;;;;;;;;;5054012;28;20041;-44
2021/12/26 14:03:50;;;;;;;11.27;6.43;;;;;;;;;;5057121;28;20045;-43
2021/12/26 14:06:26;;;;;;;12.35;6.15;;;;;;;;;;5035138;28;20061;-44
2021/12/26 14:08:55;;;;;;;;;;;;;;;;;;5051116;28;20150;-46
2021/12/26 14:11:21;;;;;;;8.85;5.68;;;;;;;;;;5052152;28;19928;-44
2021/12/26 14:13:55;;;;;;;13.30;6.30;;;;;;;;;;5049203;28;20071;-47
2021/12/26 14:16:27;;;;;;;14.43;6.55;;;;;;;;;;5055890;28;20045;-47
2021/12/26 14:18:53;;;;;;;11.00;5.97;;;;;;;;;;5048336;28;20041;-47
2021/12/26 14:21:20;;;;;;;13.88;6.45;;;;;;;;;;5058655;28;20052;-43
2021/12/26 14:23:47;;;;;;;10.45;6.13;;;;;;;;;;5050132;28;20036;-49
2021/12/26 14:26:22;;;;;;;11.25;6.28;;;;;;;;;;5046996;28;20060;-43
2021/12/26 14:29:13;;;;;;;10.30;5.18;;;;;;;;;;5059007;28;20066;-49
2021/12/26 14:31:42;;;;;;;13.20;6.53;;;;;;;;;;5059143;28;20041;-44
2021/12/26 14:34:13;;;;;;;11.55;6.38;;;;;;;;;;5054684;28;20090;-46
2021/12/26 14:36:51;;;;;;;12.98;6.90;;;;;;;;;;5050436;28;20047;-42